Amlin, Ohio
Current Conditions -  °F | °C
As of 3:53 PM on Sunday 23 Nov 2014 (Local Time) from KOSU Reporting Station
Scattered Clouds Scattered Clouds  
Wind Chill: 62°   Ceiling: Unl
Heat Index: 62°   Visibility: 10mi
Dew Point: 40°   Wind: 15mph
Humidity: 44%   Direction: 120°ESE
Pressure: 29.69"   Gusts: NA
Location:  40.08°N, 83.18°W
Report Text: KOSU 232053Z 12013KT 10SM SCT075 17/04 A2969 RMK AO2 SLP053 T01670044 56052
Loading
Personal Weather Stations






























Interactive Weather Map New forecast layout! Learn more

10-Day Weather Forecast

Advertisements
Track Severe Weather on mobile